createdAt,value
2023-04-03T00:01:14.019Z,8.77
2023-04-03T00:03:45.020Z,14.57
2023-04-03T00:08:41.664Z,9.00
2023-04-03T00:11:10.487Z,12.95
2023-04-03T00:13:38.689Z,18.73
2023-04-03T00:16:07.372Z,18.45
2023-04-03T00:18:35.367Z,17.58
2023-04-03T00:21:03.343Z,18.40
2023-04-03T00:23:30.859Z,12.32
2023-04-03T00:25:58.457Z,13.70
2023-04-03T00:28:26.404Z,13.98
2023-04-03T00:30:54.053Z,9.50
2023-04-03T00:33:22.926Z,13.40
2023-04-03T00:35:51.070Z,8.50
2023-04-03T00:38:19.188Z,9.45
2023-04-03T00:40:48.877Z,9.63
2023-04-03T00:43:22.968Z,6.30
2023-04-03T00:45:56.221Z,14.30
2023-04-03T00:48:48.660Z,14.02
2023-04-03T00:51:24.422Z,10.68
2023-04-03T00:53:55.951Z,10.38
2023-04-03T00:56:27.543Z,15.70
2023-04-03T00:58:57.420Z,10.65
2023-04-03T01:01:27.610Z,7.72
2023-04-03T01:03:56.625Z,10.93
2023-04-03T01:06:29.151Z,9.82
2023-04-03T01:09:02.362Z,10.77
2023-04-03T01:11:29.808Z,5.70
2023-04-03T01:13:57.480Z,12.02
2023-04-03T01:16:26.420Z,10.63
2023-04-03T01:18:56.983Z,13.35
2023-04-03T01:21:53.709Z,10.80
2023-04-03T01:24:26.590Z,10.93
2023-04-03T01:26:56.916Z,12.20
2023-04-03T01:29:24.477Z,16.80
2023-04-03T01:32:00.922Z,11.88
2023-04-03T01:34:29.571Z,13.18
2023-04-03T01:36:57.490Z,18.58
2023-04-03T01:39:25.233Z,10.10
2023-04-03T01:41:53.207Z,13.70
2023-04-03T01:44:30.956Z,14.40
2023-04-03T01:46:58.866Z,12.45
2023-04-03T01:49:28.515Z,11.75
2023-04-03T01:51:56.876Z,12.05
2023-04-03T01:54:24.322Z,11.65
2023-04-03T01:56:52.126Z,12.48
2023-04-03T01:59:20.866Z,12.20
2023-04-03T02:01:48.371Z,12.07
2023-04-03T02:04:15.986Z,13.57
2023-04-03T02:06:43.677Z,10.05
2023-04-03T02:09:17.003Z,10.20
2023-04-03T02:11:44.474Z,13.00
2023-04-03T02:14:12.246Z,19.33
2023-04-03T02:16:39.784Z,8.27
2023-04-03T02:19:07.351Z,11.52
2023-04-03T02:21:34.744Z,16.63
2023-04-03T02:24:02.300Z,14.52
2023-04-03T02:26:29.837Z,13.25
2023-04-03T02:28:57.281Z,12.32
2023-04-03T02:31:25.180Z,11.13
2023-04-03T02:33:53.642Z,7.20
2023-04-03T02:36:21.306Z,10.80
2023-04-03T02:38:54.056Z,9.95
2023-04-03T02:41:22.086Z,8.75
2023-04-03T02:43:51.187Z,10.18
2023-04-03T02:46:18.798Z,14.95
2023-04-03T02:48:46.586Z,12.98
2023-04-03T02:51:14.441Z,9.23
2023-04-03T02:53:42.022Z,12.82
2023-04-03T02:56:14.926Z,11.30
2023-04-03T02:58:42.794Z,8.57
2023-04-03T03:01:11.658Z,7.25
2023-04-03T03:03:39.373Z,9.68
2023-04-03T03:06:13.270Z,8.90
2023-04-03T03:08:41.716Z,12.02
2023-04-03T03:11:09.697Z,11.45
2023-04-03T03:13:37.795Z,21.38
2023-04-03T03:16:06.323Z,10.50
2023-04-03T03:18:35.613Z,11.43
2023-04-03T03:21:04.521Z,15.20
2023-04-03T03:23:33.209Z,12.60
2023-04-03T03:26:06.885Z,18.08
2023-04-03T03:28:37.361Z,8.90
2023-04-03T03:31:07.135Z,12.13
2023-04-03T03:33:35.795Z,8.23
2023-04-03T03:36:03.428Z,12.93
2023-04-03T03:38:31.460Z,11.10
2023-04-03T03:41:00.587Z,10.45
2023-04-03T03:43:28.611Z,13.30
2023-04-03T03:45:56.418Z,13.50
2023-04-03T03:48:25.764Z,9.95
2023-04-03T03:50:53.473Z,6.72
2023-04-03T03:53:24.648Z,12.90
2023-04-03T03:55:55.497Z,15.77
2023-04-03T03:58:26.052Z,10.80
2023-04-03T04:00:53.589Z,9.48
2023-04-03T04:03:21.997Z,13.52
2023-04-03T04:05:50.968Z,7.47
2023-04-03T04:08:18.632Z,12.48
2023-04-03T04:10:47.596Z,8.82
2023-04-03T04:13:17.330Z,9.82
2023-04-03T04:15:45.857Z,11.18
2023-04-03T04:18:14.720Z,11.10
2023-04-03T04:20:46.695Z,17.35
2023-04-03T04:23:15.615Z,12.75
2023-04-03T04:25:46.502Z,11.68
2023-04-03T04:28:15.330Z,14.30
2023-04-03T04:30:43.314Z,14.15
2023-04-03T04:33:11.660Z,9.38
2023-04-03T04:35:40.119Z,12.73
2023-04-03T04:38:09.572Z,6.63
2023-04-03T04:40:38.751Z,10.27
2023-04-03T04:43:06.999Z,9.32
2023-04-03T04:45:35.764Z,10.70
2023-04-03T04:48:03.600Z,19.98
2023-04-03T04:50:31.693Z,15.45
2023-04-03T04:52:59.467Z,8.40
2023-04-03T04:55:27.145Z,10.63
2023-04-03T04:57:54.728Z,10.63
2023-04-03T05:00:23.368Z,13.85
2023-04-03T05:02:51.099Z,9.48
2023-04-03T05:05:20.880Z,10.70
2023-04-03T05:07:48.622Z,12.45
2023-04-03T05:10:18.609Z,9.43
2023-04-03T05:12:47.053Z,10.93
2023-04-03T05:15:14.731Z,20.10
2023-04-03T05:17:42.512Z,13.85
2023-04-03T05:22:42.692Z,12.18
2023-04-03T05:25:11.199Z,11.57
2023-04-03T05:27:40.211Z,12.27
2023-04-03T05:30:08.300Z,10.68
2023-04-03T05:32:37.686Z,17.80
2023-04-03T05:35:16.059Z,10.32
2023-04-03T05:37:45.868Z,10.55
2023-04-03T05:40:18.588Z,10.32
2023-04-03T05:42:48.344Z,11.43
2023-04-03T05:45:18.214Z,14.30
2023-04-03T05:47:45.763Z,13.10
2023-04-03T05:50:13.285Z,14.25
2023-04-03T05:52:45.436Z,11.18
2023-04-03T05:55:13.878Z,8.35
2023-04-03T05:57:41.525Z,8.23
2023-04-03T06:00:13.645Z,13.27
2023-04-03T06:02:50.056Z,15.02
2023-04-03T06:05:22.377Z,15.07
2023-04-03T06:07:50.907Z,16.80
2023-04-03T06:10:18.794Z,12.48
2023-04-03T06:12:46.901Z,16.80
2023-04-03T06:15:14.812Z,15.73
2023-04-03T06:17:42.511Z,12.68
2023-04-03T06:20:10.878Z,15.98
2023-04-03T06:22:38.795Z,16.48
2023-04-03T06:25:07.356Z,17.60
2023-04-03T06:27:35.011Z,17.63
2023-04-03T06:30:02.645Z,13.05
2023-04-03T06:32:30.282Z,15.32
2023-04-03T06:34:58.402Z,12.50
2023-04-03T06:37:29.881Z,12.00
2023-04-03T06:39:57.756Z,12.10
2023-04-03T06:42:25.530Z,14.77
2023-04-03T06:45:13.239Z,14.75
2023-04-03T06:47:40.762Z,15.57
2023-04-03T06:50:09.961Z,16.77
2023-04-03T06:52:37.609Z,13.35
2023-04-03T06:55:05.853Z,17.83
2023-04-03T06:57:33.334Z,19.33
2023-04-03T07:00:00.921Z,13.45
2023-04-03T07:02:28.386Z,18.13
2023-04-03T07:04:56.099Z,15.60
2023-04-03T07:07:23.611Z,13.13
2023-04-03T07:09:51.265Z,15.63
2023-04-03T07:12:18.644Z,8.15
2023-04-03T07:14:46.058Z,13.95
2023-04-03T07:17:13.465Z,10.55
2023-04-03T07:19:41.135Z,13.18
2023-04-03T07:22:08.718Z,12.73
2023-04-03T07:24:36.696Z,10.32
2023-04-03T07:27:04.716Z,11.77
2023-04-03T07:29:32.815Z,14.27
2023-04-03T07:32:01.708Z,19.30
2023-04-03T07:34:29.259Z,13.57
2023-04-03T07:36:57.613Z,20.10
2023-04-03T07:39:25.349Z,16.05
2023-04-03T07:41:52.882Z,13.40
2023-04-03T07:44:20.288Z,13.25
2023-04-03T07:46:47.989Z,18.55
2023-04-03T07:49:15.869Z,11.82
2023-04-03T07:51:43.306Z,10.95
2023-04-03T07:54:11.576Z,16.73
2023-04-03T07:56:39.182Z,18.55
2023-04-03T07:59:07.305Z,14.88
2023-04-03T08:01:34.811Z,17.08
2023-04-03T08:04:02.778Z,15.35
2023-04-03T08:06:45.562Z,15.60
2023-04-03T08:09:16.839Z,20.90
2023-04-03T08:11:45.436Z,15.10
2023-04-03T08:14:17.688Z,14.75
2023-04-03T08:16:47.516Z,16.48
2023-04-03T08:19:26.294Z,20.58
2023-04-03T08:21:55.756Z,22.20
2023-04-03T08:24:23.454Z,17.42
2023-04-03T08:26:51.091Z,16.73
2023-04-03T08:29:18.715Z,15.48
2023-04-03T08:31:46.345Z,13.32
2023-04-03T08:34:14.150Z,21.10
2023-04-03T08:36:42.082Z,15.50
2023-04-03T08:39:10.063Z,21.70
2023-04-03T08:41:43.498Z,18.65
2023-04-03T08:44:34.015Z,15.40
2023-04-03T08:51:16.589Z,17.35
2023-04-03T08:54:01.787Z,20.10
2023-04-03T08:56:31.089Z,16.55
2023-04-03T08:59:05.038Z,20.90
2023-04-03T09:01:39.546Z,23.63
2023-04-03T09:04:19.406Z,20.35
2023-04-03T09:07:03.419Z,17.75
2023-04-03T09:09:42.535Z,19.98
2023-04-03T09:12:46.001Z,21.05
2023-04-03T09:15:35.498Z,19.23
2023-04-03T09:18:17.919Z,20.85
2023-04-03T09:20:55.407Z,22.17
2023-04-03T09:23:41.997Z,20.65
2023-04-03T09:26:18.793Z,22.75
2023-04-03T09:28:50.356Z,22.73
2023-04-03T09:31:28.342Z,18.85
2023-04-03T09:34:06.709Z,18.30
2023-04-03T09:36:49.057Z,16.35
2023-04-03T09:39:29.740Z,19.65
2023-04-03T09:42:04.021Z,14.38
2023-04-03T09:44:34.380Z,19.40
2023-04-03T09:47:38.504Z,18.73
2023-04-03T09:50:15.654Z,17.95
2023-04-03T09:52:50.751Z,15.77
2023-04-03T09:55:30.636Z,12.88
2023-04-03T09:58:02.815Z,17.60
2023-04-03T10:00:38.131Z,15.38
2023-04-03T10:03:26.413Z,15.90
2023-04-03T10:05:56.484Z,17.27
2023-04-03T10:08:30.708Z,10.52
2023-04-03T10:11:18.295Z,13.98
2023-04-03T10:14:01.573Z,15.52
2023-04-03T10:16:45.026Z,14.38
2023-04-03T10:19:42.511Z,10.65
2023-04-03T10:22:31.576Z,9.48
2023-04-03T10:25:14.937Z,12.45
2023-04-03T10:27:48.455Z,11.65
2023-04-03T10:30:47.237Z,14.10
2023-04-03T10:33:30.720Z,12.40
2023-04-03T10:36:01.463Z,12.63
2023-04-03T10:38:46.009Z,10.98
2023-04-03T10:41:37.678Z,10.82
2023-04-03T10:44:26.862Z,10.95
2023-04-03T10:47:10.000Z,10.27
2023-04-03T10:49:56.987Z,12.43
2023-04-03T10:52:56.714Z,8.25
2023-04-03T10:55:35.307Z,10.02
2023-04-03T10:58:05.062Z,7.68
2023-04-03T11:00:46.659Z,9.65
2023-04-03T11:03:22.765Z,7.47
2023-04-03T11:05:54.943Z,13.25
2023-04-03T11:08:28.485Z,8.90
2023-04-03T11:11:04.112Z,11.50
2023-04-03T11:13:47.853Z,9.50
2023-04-03T11:16:28.262Z,10.95
2023-04-03T11:19:06.306Z,10.63
2023-04-03T11:21:40.231Z,7.90
2023-04-03T11:24:40.953Z,7.60
2023-04-03T11:27:23.835Z,6.78
2023-04-03T11:29:54.656Z,11.60
2023-04-03T11:32:44.167Z,6.78
2023-04-03T11:35:13.067Z,5.97
2023-04-03T11:37:51.216Z,8.85
2023-04-03T11:40:21.733Z,7.25
2023-04-03T11:42:52.922Z,5.03
2023-04-03T11:45:23.284Z,8.77
2023-04-03T11:47:53.953Z,8.68
2023-04-03T11:50:39.303Z,6.60
2023-04-03T11:53:07.402Z,7.22
2023-04-03T11:55:35.150Z,7.50
2023-04-03T11:58:04.974Z,10.88
2023-04-03T12:00:44.726Z,9.18
2023-04-03T12:03:30.849Z,6.72
2023-04-03T12:06:08.143Z,7.45
2023-04-03T12:08:44.546Z,11.30
2023-04-03T12:11:12.923Z,8.93
2023-04-03T12:13:43.438Z,11.75
2023-04-03T12:16:24.861Z,7.00
2023-04-03T12:18:56.431Z,5.93
2023-04-03T12:21:48.219Z,10.13
2023-04-03T12:24:16.842Z,5.28
2023-04-03T12:26:53.117Z,8.48
2023-04-03T12:29:36.233Z,9.65
2023-04-03T12:32:20.172Z,7.95
2023-04-03T12:35:31.874Z,8.30
2023-04-03T12:38:18.221Z,4.60
2023-04-03T12:41:23.069Z,6.65
2023-04-03T12:44:02.618Z,5.18
2023-04-03T12:46:38.784Z,7.38
2023-04-03T12:49:24.543Z,7.82
2023-04-03T12:51:52.274Z,6.05
2023-04-03T12:54:34.333Z,6.45
2023-04-03T12:57:13.727Z,6.90
2023-04-03T12:59:42.397Z,5.80
2023-04-03T13:02:25.144Z,7.25
2023-04-03T13:04:55.823Z,6.03
2023-04-03T13:10:17.516Z,9.10
2023-04-03T13:12:58.296Z,6.75
2023-04-03T13:15:41.945Z,4.30
2023-04-03T13:18:30.004Z,5.45
2023-04-03T13:21:03.692Z,9.55
2023-04-03T13:23:39.735Z,6.45
2023-04-03T13:26:08.409Z,4.68
2023-04-03T13:28:38.227Z,7.55
2023-04-03T13:31:31.456Z,6.43
2023-04-03T13:34:12.665Z,4.57
2023-04-03T13:36:52.322Z,6.28
2023-04-03T13:39:21.931Z,5.00
2023-04-03T13:42:02.502Z,7.93
2023-04-03T13:44:37.216Z,5.47
2023-04-03T13:47:19.422Z,6.20
2023-04-03T13:50:02.990Z,3.10
2023-04-03T13:52:47.120Z,14.15
2023-04-03T13:55:25.907Z,5.93
2023-04-03T13:58:24.683Z,8.10
2023-04-03T14:01:02.268Z,5.65
2023-04-03T14:03:41.206Z,4.80
2023-04-03T14:06:14.451Z,7.22
2023-04-03T14:08:43.710Z,6.07
2023-04-03T14:11:19.551Z,6.28
2023-04-03T14:13:48.380Z,7.78
2023-04-03T14:16:24.725Z,8.48
2023-04-03T14:18:54.098Z,7.45
2023-04-03T14:21:22.526Z,7.70
2023-04-03T14:23:51.228Z,8.38
2023-04-03T14:26:22.239Z,7.88
2023-04-03T14:28:53.475Z,6.78
2023-04-03T14:31:22.837Z,7.80
2023-04-03T14:33:51.139Z,7.45
2023-04-03T14:36:23.273Z,8.77
2023-04-03T14:38:52.150Z,10.05
2023-04-03T14:41:25.082Z,7.53
2023-04-03T14:43:53.913Z,8.85
2023-04-03T14:46:48.364Z,11.82
2023-04-03T14:49:26.424Z,10.23
2023-04-03T14:51:54.125Z,7.68
2023-04-03T14:54:28.455Z,7.30
2023-04-03T14:56:58.571Z,9.00
2023-04-03T14:59:27.462Z,7.38
2023-04-03T15:01:55.481Z,7.85
2023-04-03T15:04:23.695Z,12.75
2023-04-03T15:06:52.978Z,9.60
2023-04-03T15:09:27.045Z,11.32
2023-04-03T15:11:56.433Z,10.38
2023-04-03T15:14:36.251Z,12.30
2023-04-03T15:17:14.368Z,7.63
2023-04-03T15:19:42.486Z,9.32
2023-04-03T15:22:18.095Z,14.52
2023-04-03T15:24:48.983Z,8.02
2023-04-03T15:27:17.090Z,9.43
2023-04-03T15:29:45.403Z,7.55
2023-04-03T15:32:14.290Z,8.98
2023-04-03T15:34:42.377Z,9.02
2023-04-03T15:37:09.971Z,6.20
2023-04-03T15:39:37.721Z,7.80
2023-04-03T15:42:07.420Z,4.45
2023-04-03T15:44:36.750Z,8.07
2023-04-03T15:49:34.929Z,5.35
2023-04-03T15:52:03.883Z,6.18
2023-04-03T15:54:31.702Z,5.03
2023-04-03T15:56:59.474Z,6.32
2023-04-03T15:59:27.196Z,6.45
2023-04-03T16:01:55.418Z,5.35
2023-04-03T16:04:27.015Z,5.32
2023-04-03T16:06:55.846Z,9.07
2023-04-03T16:09:23.707Z,7.90
2023-04-03T16:11:52.004Z,8.05
2023-04-03T16:14:20.070Z,6.47
2023-04-03T16:16:48.171Z,6.88
2023-04-03T16:19:16.096Z,9.05
2023-04-03T16:21:47.140Z,6.13
2023-04-03T16:24:16.158Z,6.25
2023-04-03T16:26:45.987Z,6.72
2023-04-03T16:29:16.349Z,7.72
2023-04-03T16:31:44.059Z,7.97
2023-04-03T16:34:15.316Z,6.93
2023-04-03T16:36:43.208Z,9.35
2023-04-03T16:39:11.014Z,9.38
2023-04-03T16:41:38.935Z,8.13
2023-04-03T16:44:08.518Z,8.48
2023-04-03T16:46:36.533Z,8.17
2023-04-03T16:49:05.361Z,7.22
2023-04-03T16:51:36.004Z,9.93
2023-04-03T16:54:04.022Z,12.95
2023-04-03T16:56:33.012Z,8.07
2023-04-03T16:59:00.666Z,7.97
2023-04-03T17:01:28.308Z,8.25
2023-04-03T17:03:56.251Z,7.05
2023-04-03T17:06:24.657Z,7.25
2023-04-03T17:08:53.165Z,6.22
2023-04-03T17:11:43.100Z,6.78
2023-04-03T17:16:40.901Z,6.88
2023-04-03T17:19:10.526Z,8.60
2023-04-03T17:21:38.554Z,6.53
2023-04-03T17:24:13.298Z,8.65
2023-04-03T17:26:43.030Z,6.57
2023-04-03T17:29:10.895Z,9.57
2023-04-03T17:31:39.068Z,8.00
2023-04-03T17:34:07.345Z,8.88
2023-04-03T17:36:35.366Z,12.85
2023-04-03T17:39:03.324Z,9.27
2023-04-03T17:41:31.047Z,9.45
2023-04-03T17:43:59.196Z,10.38
2023-04-03T17:46:27.132Z,9.18
2023-04-03T17:48:54.879Z,11.00
2023-04-03T17:51:24.035Z,10.50
2023-04-03T17:53:52.159Z,11.10
2023-04-03T17:56:23.159Z,10.25
2023-04-03T17:58:55.422Z,9.50
2023-04-03T18:01:32.323Z,9.95
2023-04-03T18:04:03.999Z,11.60
2023-04-03T18:06:43.153Z,13.73
2023-04-03T18:09:18.748Z,6.97
2023-04-03T18:11:48.502Z,11.77
2023-04-03T18:14:20.771Z,11.05
2023-04-03T18:16:49.190Z,12.70
2023-04-03T18:19:23.502Z,11.48
2023-04-03T18:21:58.325Z,11.80
2023-04-03T18:24:27.306Z,11.18
2023-04-03T18:27:00.212Z,12.15
2023-04-03T18:29:32.204Z,14.55
2023-04-03T18:32:04.288Z,14.90
2023-04-03T18:34:32.594Z,7.20
2023-04-03T18:37:00.431Z,9.32
2023-04-03T18:39:27.959Z,11.25
2023-04-03T18:41:59.259Z,10.38
2023-04-03T18:44:28.184Z,13.10
2023-04-03T18:46:58.963Z,11.52
2023-04-03T18:49:30.005Z,8.90
2023-04-03T18:54:25.732Z,15.02
2023-04-03T18:56:53.831Z,9.57
2023-04-03T18:59:22.041Z,11.93
2023-04-03T19:01:50.821Z,13.15
2023-04-03T19:04:18.643Z,15.15
2023-04-03T19:06:46.347Z,12.38
2023-04-03T19:09:14.081Z,14.00
2023-04-03T19:11:41.853Z,10.27
2023-04-03T19:16:40.378Z,12.70
2023-04-03T19:19:08.282Z,7.70
2023-04-03T19:21:41.319Z,11.98
2023-04-03T19:24:11.691Z,11.48
2023-04-03T19:26:41.040Z,9.95
2023-04-03T19:29:09.710Z,7.82
2023-04-03T19:31:38.442Z,8.93
2023-04-03T19:34:07.152Z,9.00
2023-04-03T19:36:36.410Z,9.57
2023-04-03T19:39:05.718Z,6.40
2023-04-03T19:41:36.720Z,13.73
2023-04-03T19:44:06.665Z,11.48
2023-04-03T19:46:36.548Z,9.38
2023-04-03T19:49:05.128Z,9.38
2023-04-03T19:51:32.684Z,10.02
2023-04-03T19:54:00.754Z,8.70
2023-04-03T19:56:28.639Z,11.40
2023-04-03T19:58:56.844Z,11.30
2023-04-03T20:01:26.921Z,10.60
2023-04-03T20:03:55.304Z,11.63
2023-04-03T20:06:23.323Z,11.05
2023-04-03T20:08:51.189Z,15.30
2023-04-03T20:11:19.046Z,11.15
2023-04-03T20:13:54.476Z,13.20
2023-04-03T20:16:25.379Z,8.10
2023-04-03T20:18:56.192Z,16.15
2023-04-03T20:21:32.036Z,13.70
2023-04-03T20:24:01.411Z,12.60
2023-04-03T20:26:31.558Z,10.25
2023-04-03T20:29:01.870Z,9.20
2023-04-03T20:31:30.855Z,11.13
2023-04-03T20:33:58.476Z,12.45
2023-04-03T20:36:28.484Z,11.23
2023-04-03T20:38:56.297Z,10.03
2023-04-03T20:41:24.890Z,9.85
2023-04-03T20:43:53.625Z,7.55
2023-04-03T20:46:22.766Z,7.80
2023-04-03T20:48:50.738Z,11.75
2023-04-03T20:51:20.818Z,9.63
2023-04-03T20:53:49.005Z,17.83
2023-04-03T20:56:18.053Z,15.45
2023-04-03T20:58:46.420Z,13.35
2023-04-03T21:01:24.126Z,13.60
2023-04-03T21:04:01.400Z,11.10
2023-04-03T21:07:07.092Z,17.23
2023-04-03T21:10:12.593Z,12.15
2023-04-03T21:13:18.897Z,11.18
2023-04-03T21:15:46.570Z,13.98
2023-04-03T21:18:33.753Z,18.80
2023-04-03T21:21:03.825Z,13.70
2023-04-03T21:23:32.238Z,13.90
2023-04-03T21:26:00.452Z,13.07
2023-04-03T21:28:28.709Z,10.40
2023-04-03T21:30:56.676Z,10.98
2023-04-03T21:33:24.502Z,12.88
2023-04-03T21:35:58.608Z,10.80
2023-04-03T21:38:27.368Z,13.98
2023-04-03T21:40:58.844Z,13.75
2023-04-03T21:43:29.631Z,13.50
2023-04-03T21:45:58.775Z,10.35
2023-04-03T21:48:30.798Z,7.22
2023-04-03T21:51:11.081Z,16.15
2023-04-03T21:53:38.892Z,11.63
2023-04-03T21:56:07.952Z,12.23
2023-04-03T21:58:35.730Z,11.07
2023-04-03T22:01:13.974Z,10.20
2023-04-03T22:03:44.509Z,10.80
2023-04-03T22:06:16.863Z,11.95
2023-04-03T22:08:45.861Z,11.73
2023-04-03T22:11:16.073Z,9.25
2023-04-03T22:13:45.183Z,14.35
2023-04-03T22:16:13.266Z,12.27
2023-04-03T22:18:41.487Z,15.52
2023-04-03T22:21:12.446Z,10.52
2023-04-03T22:23:40.225Z,17.10
2023-04-03T22:26:13.603Z,14.38
2023-04-03T22:28:44.460Z,12.85
2023-04-03T22:31:14.450Z,23.90
2023-04-03T22:33:44.765Z,16.00
2023-04-03T22:36:14.179Z,12.23
2023-04-03T22:38:45.819Z,16.92
2023-04-03T22:41:14.486Z,10.48
2023-04-03T22:43:42.631Z,22.02
2023-04-03T22:46:10.982Z,17.70
2023-04-03T22:48:43.388Z,16.52
2023-04-03T22:51:12.400Z,13.30
2023-04-03T22:53:40.386Z,9.82
2023-04-03T22:56:08.836Z,13.25
2023-04-03T22:58:38.584Z,15.60
2023-04-03T23:01:14.124Z,19.55
2023-04-03T23:03:43.110Z,14.27
2023-04-03T23:06:11.231Z,13.75
2023-04-03T23:08:39.556Z,20.73
2023-04-03T23:11:12.249Z,18.40
2023-04-03T23:13:40.026Z,21.52
2023-04-03T23:16:13.837Z,20.50
2023-04-03T23:21:11.700Z,20.00
2023-04-03T23:23:41.752Z,15.18
2023-04-03T23:26:09.879Z,16.70
2023-04-03T23:28:37.848Z,14.70
2023-04-03T23:31:07.177Z,17.25
2023-04-03T23:33:34.966Z,17.38
2023-04-03T23:36:08.029Z,18.65
2023-04-03T23:38:37.081Z,19.02
2023-04-03T23:41:05.096Z,17.67
2023-04-03T23:43:32.881Z,17.50
2023-04-03T23:46:03.139Z,22.52
2023-04-03T23:48:31.675Z,19.55
2023-04-03T23:50:59.454Z,18.13
2023-04-03T23:53:27.252Z,16.05
2023-04-03T23:55:54.853Z,19.55
2023-04-03T23:58:22.584Z,17.38
